TimeCST,TemperatureF,Dew PointF,Humidity,Sea Level PressureIn,VisibilityMPH,Wind Direction,Wind SpeedMPH,Gust SpeedMPH,PrecipitationIn,Events,Conditions,WindDirDegrees,DateUTC
12:51 AM,44.1,30.9,60,29.78,10.0,NW,24.2,31.1,N/A,,Overcast,310,2013-02-26 06:51:00
1:51 AM,42.1,30.9,65,29.78,10.0,NW,19.6,26.5,N/A,,Partly Cloudy,310,2013-02-26 07:51:00
2:51 AM,43.0,30.9,62,29.78,10.0,WNW,13.8,20.7,N/A,,Overcast,300,2013-02-26 08:51:00
3:51 AM,42.1,30.0,62,29.80,10.0,WNW,20.7,27.6,N/A,,Mostly Cloudy,300,2013-02-26 09:51:00
4:51 AM,39.9,28.9,65,29.82,10.0,WNW,12.7,-,N/A,,Clear,290,2013-02-26 10:51:00
5:51 AM,39.0,28.0,65,29.84,10.0,WNW,16.1,-,N/A,,Clear,300,2013-02-26 11:51:00
6:51 AM,37.9,28.0,68,29.86,10.0,NW,8.1,-,N/A,,Clear,310,2013-02-26 12:51:00
7:51 AM,39.9,28.9,65,29.88,10.0,WNW,9.2,-,N/A,,Clear,300,2013-02-26 13:51:00
8:51 AM,44.1,28.9,55,29.91,10.0,NW,13.8,21.9,N/A,,Clear,320,2013-02-26 14:51:00
9:51 AM,46.0,28.9,51,29.93,10.0,NW,13.8,20.7,N/A,,Clear,310,2013-02-26 15:51:00
10:51 AM,50.0,30.9,48,29.93,10.0,WNW,15.0,19.6,N/A,,Clear,300,2013-02-26 16:51:00
11:51 AM,54.0,30.0,40,29.93,10.0,NW,15.0,23.0,N/A,,Clear,320,2013-02-26 17:51:00
12:51 PM,57.0,30.9,37,29.91,10.0,NNW,11.5,16.1,N/A,,Clear,330,2013-02-26 18:51:00
1:51 PM,57.9,30.9,36,29.87,10.0,WNW,10.4,16.1,N/A,,Clear,300,2013-02-26 19:51:00
2:51 PM,60.1,30.0,32,29.86,10.0,WNW,9.2,-,N/A,,Clear,290,2013-02-26 20:51:00
3:51 PM,62.1,28.9,29,29.84,10.0,NNW,6.9,-,N/A,,Clear,340,2013-02-26 21:51:00
4:51 PM,61.0,27.0,27,29.84,10.0,NW,3.5,-,N/A,,Clear,320,2013-02-26 22:51:00
5:51 PM,60.1,28.0,30,29.84,10.0,North,4.6,-,N/A,,Clear,350,2013-02-26 23:51:00
6:51 PM,52.0,28.9,41,29.86,10.0,Calm,Calm,-,N/A,,Clear,0,2013-02-27 00:51:00
7:51 PM,50.0,28.9,44,29.86,10.0,ESE,4.6,-,N/A,,Clear,110,2013-02-27 01:51:00
8:51 PM,48.0,30.9,52,29.86,10.0,East,6.9,-,N/A,,Clear,100,2013-02-27 02:51:00
9:51 PM,44.1,30.9,60,29.89,10.0,ESE,4.6,-,N/A,,Clear,120,2013-02-27 03:51:00
10:51 PM,41.0,30.9,67,29.90,10.0,ESE,4.6,-,N/A,,Clear,120,2013-02-27 04:51:00
11:51 PM,36.0,30.0,79,29.89,10.0,East,3.5,-,N/A,,Clear,90,2013-02-27 05:51:00